createdAt,value
2022-11-15T00:00:05.531Z,100421.91
2022-11-15T00:02:33.223Z,100411.63
2022-11-15T00:05:02.637Z,100415.94
2022-11-15T00:07:54.157Z,100407.22
2022-11-15T00:10:18.416Z,100405.59
2022-11-15T00:12:45.967Z,100407.00
2022-11-15T00:15:13.539Z,100417.63
2022-11-15T00:17:41.063Z,100412.63
2022-11-15T00:20:12.381Z,100404.56
2022-11-15T00:22:40.100Z,100399.91
2022-11-15T00:25:08.481Z,100405.94
2022-11-15T00:27:36.035Z,100406.59
2022-11-15T00:30:03.586Z,100408.06
2022-11-15T00:32:33.063Z,100396.22
2022-11-15T00:35:00.654Z,100396.47
2022-11-15T00:37:29.617Z,100398.06
2022-11-15T00:39:57.265Z,100400.28
2022-11-15T00:42:24.993Z,100395.66
2022-11-15T00:44:52.593Z,100393.34
2022-11-15T00:47:20.354Z,100382.88
2022-11-15T00:49:47.941Z,100387.72
2022-11-15T00:52:15.534Z,100381.06
2022-11-15T00:54:44.411Z,100379.94
2022-11-15T00:57:12.311Z,100379.59
2022-11-15T00:59:39.824Z,100373.84
2022-11-15T01:02:07.384Z,100380.78
2022-11-15T01:04:35.020Z,100380.28
2022-11-15T01:07:02.577Z,100375.81
2022-11-15T01:09:30.128Z,100374.19
2022-11-15T01:11:59.021Z,100369.22
2022-11-15T01:14:26.789Z,100366.00
2022-11-15T01:16:54.347Z,100369.44
2022-11-15T01:19:22.098Z,100365.84
2022-11-15T01:21:50.875Z,100369.41
2022-11-15T01:24:18.457Z,100370.53
2022-11-15T01:26:46.031Z,100366.94
2022-11-15T01:29:14.858Z,100359.34
2022-11-15T01:31:42.368Z,100367.25
2022-11-15T01:34:09.976Z,100371.41
2022-11-15T01:36:37.602Z,100361.56
2022-11-15T01:39:05.357Z,100369.84
2022-11-15T01:41:34.607Z,100366.63
2022-11-15T01:44:35.610Z,100369.28
2022-11-15T01:47:07.845Z,100357.84
2022-11-15T01:49:37.652Z,100350.25
2022-11-15T01:52:07.638Z,100355.13
2022-11-15T01:54:35.126Z,100345.03
2022-11-15T01:57:04.984Z,100350.69
2022-11-15T01:59:32.564Z,100344.09
2022-11-15T02:02:00.119Z,100357.00
2022-11-15T02:04:30.653Z,100351.03
2022-11-15T02:06:58.302Z,100350.03
2022-11-15T02:09:25.957Z,100341.97
2022-11-15T02:11:53.905Z,100337.88
2022-11-15T02:14:22.156Z,100323.16
2022-11-15T02:16:56.452Z,100325.00
2022-11-15T02:19:36.910Z,100332.81
2022-11-15T02:22:13.207Z,100319.50
2022-11-15T02:24:54.847Z,100319.09
2022-11-15T02:27:36.608Z,100315.31
2022-11-15T02:30:20.950Z,100313.19
2022-11-15T02:32:51.977Z,100303.25
2022-11-15T02:35:26.163Z,100302.72
2022-11-15T02:37:57.221Z,100294.31
2022-11-15T02:40:30.301Z,100299.84
2022-11-15T02:43:17.312Z,100297.53
2022-11-15T02:45:48.443Z,100301.38
2022-11-15T02:48:16.251Z,100303.44
2022-11-15T02:50:44.659Z,100294.50
2022-11-15T02:53:12.231Z,100293.06
2022-11-15T02:55:42.194Z,100293.50
2022-11-15T02:58:45.876Z,100288.13
2022-11-15T03:01:19.840Z,100286.56
2022-11-15T03:03:57.313Z,100292.53
2022-11-15T03:06:31.441Z,100288.78
2022-11-15T03:09:05.889Z,100290.25
2022-11-15T03:11:36.824Z,100285.22
2022-11-15T03:14:10.525Z,100286.22
2022-11-15T03:16:41.722Z,100288.13
2022-11-15T03:19:15.567Z,100283.13
2022-11-15T03:21:43.245Z,100290.41
2022-11-15T03:24:11.052Z,100290.53
2022-11-15T03:26:40.875Z,100294.78
2022-11-15T03:29:11.142Z,100295.19
2022-11-15T03:31:51.663Z,100291.72
2022-11-15T03:34:24.597Z,100287.50
2022-11-15T03:36:53.703Z,100285.00
2022-11-15T03:39:22.228Z,100285.88
2022-11-15T03:41:52.142Z,100287.84
2022-11-15T03:44:24.487Z,100288.97
2022-11-15T03:46:57.969Z,100289.19
2022-11-15T03:49:29.852Z,100287.69
2022-11-15T03:51:58.600Z,100284.41
2022-11-15T03:54:26.220Z,100290.78
2022-11-15T03:56:53.798Z,100278.25
2022-11-15T03:59:21.419Z,100279.72
2022-11-15T04:01:48.993Z,100282.47
2022-11-15T04:04:17.908Z,100282.28
2022-11-15T04:06:45.598Z,100286.03
2022-11-15T04:09:13.263Z,100285.19
2022-11-15T04:11:40.822Z,100284.91
2022-11-15T04:14:08.355Z,100290.72
2022-11-15T04:16:40.964Z,100287.13
2022-11-15T04:19:28.758Z,100282.38
2022-11-15T04:22:15.343Z,100275.09
2022-11-15T04:24:42.844Z,100274.75
2022-11-15T04:27:11.009Z,100275.06
2022-11-15T04:29:38.508Z,100280.66
2022-11-15T04:32:07.155Z,100266.63
2022-11-15T04:34:35.231Z,100263.50
2022-11-15T04:37:17.073Z,100277.44
2022-11-15T04:39:45.221Z,100268.06
2022-11-15T04:42:12.840Z,100269.38
2022-11-15T04:44:40.521Z,100258.75
2022-11-15T04:47:08.076Z,100264.16
2022-11-15T04:49:35.654Z,100268.91
2022-11-15T04:52:04.844Z,100254.75
2022-11-15T04:54:32.616Z,100254.22
2022-11-15T04:57:00.114Z,100246.84
2022-11-15T04:59:27.690Z,100258.94
2022-11-15T05:01:55.158Z,100268.38
2022-11-15T05:04:21.754Z,100265.09
2022-11-15T05:06:50.595Z,100257.50
2022-11-15T05:09:19.825Z,100254.91
2022-11-15T05:11:47.776Z,100251.69
2022-11-15T05:14:15.480Z,100247.00
2022-11-15T05:16:43.504Z,100241.69
2022-11-15T05:19:10.989Z,100242.41
2022-11-15T05:21:39.162Z,100238.41
2022-11-15T05:24:07.603Z,100236.56
2022-11-15T05:26:36.458Z,100242.25
2022-11-15T05:29:04.295Z,100231.38
2022-11-15T05:31:31.813Z,100234.28
2022-11-15T05:34:07.004Z,100233.00
2022-11-15T05:36:37.580Z,100237.03
2022-11-15T05:39:06.013Z,100231.53
2022-11-15T05:41:37.673Z,100229.09
2022-11-15T05:44:08.325Z,100231.75
2022-11-15T05:46:36.282Z,100225.97
2022-11-15T05:49:03.905Z,100214.91
2022-11-15T05:51:31.536Z,100233.94
2022-11-15T05:54:00.286Z,100228.00
2022-11-15T05:56:27.900Z,100228.00
2022-11-15T05:58:59.726Z,100218.59
2022-11-15T06:01:28.063Z,100212.34
2022-11-15T06:03:55.624Z,100225.41
2022-11-15T06:06:23.213Z,100223.66
2022-11-15T06:08:50.726Z,100230.66
2022-11-15T06:11:18.261Z,100231.56
2022-11-15T06:13:45.797Z,100209.59
2022-11-15T06:16:14.668Z,100210.88
2022-11-15T06:18:42.155Z,100210.34
2022-11-15T06:21:09.691Z,100227.47
2022-11-15T06:23:37.424Z,100217.31
2022-11-15T06:26:05.117Z,100221.41
2022-11-15T06:28:33.334Z,100219.31
2022-11-15T06:31:04.588Z,100222.69
2022-11-15T06:33:33.816Z,100229.75
2022-11-15T06:36:03.280Z,100234.25
2022-11-15T06:38:30.798Z,100240.31
2022-11-15T06:41:03.422Z,100231.69
2022-11-15T06:43:31.261Z,100226.56
2022-11-15T06:45:59.800Z,100221.63
2022-11-15T06:48:27.331Z,100223.28
2022-11-15T06:50:57.512Z,100217.94
2022-11-15T06:53:25.453Z,100209.19
2022-11-15T06:55:55.392Z,100218.69
2022-11-15T06:58:23.601Z,100221.63
2022-11-15T07:00:51.211Z,100225.69
2022-11-15T07:03:19.068Z,100226.28
2022-11-15T07:05:53.101Z,100232.63
2022-11-15T07:08:21.966Z,100233.09
2022-11-15T07:10:51.168Z,100234.22
2022-11-15T07:13:18.732Z,100232.22
2022-11-15T07:15:46.709Z,100229.66
2022-11-15T07:18:14.432Z,100225.22
2022-11-15T07:20:41.975Z,100236.59
2022-11-15T07:23:09.556Z,100226.06
2022-11-15T07:25:38.509Z,100231.41
2022-11-15T07:28:06.411Z,100235.81
2022-11-15T07:30:34.039Z,100229.91
2022-11-15T07:33:02.686Z,100232.47
2022-11-15T07:35:30.712Z,100226.66
2022-11-15T07:37:59.154Z,100219.16
2022-11-15T07:40:27.790Z,100228.34
2022-11-15T07:43:01.046Z,100223.59
2022-11-15T07:45:28.839Z,100226.91
2022-11-15T07:47:58.760Z,100222.47
2022-11-15T07:50:30.231Z,100227.03
2022-11-15T07:52:58.199Z,100212.56
2022-11-15T07:55:27.191Z,100221.81
2022-11-15T07:58:02.426Z,100215.25
2022-11-15T08:00:30.182Z,100225.09
2022-11-15T08:03:03.756Z,100221.91
2022-11-15T08:05:31.364Z,100230.06
2022-11-15T08:07:59.036Z,100227.09
2022-11-15T08:10:26.713Z,100231.06
2022-11-15T08:13:06.382Z,100236.41
2022-11-15T08:15:35.279Z,100242.56
2022-11-15T08:18:05.297Z,100239.31
2022-11-15T08:20:35.066Z,100233.34
2022-11-15T08:23:04.736Z,100230.69
2022-11-15T08:25:33.638Z,100224.00
2022-11-15T08:28:03.644Z,100226.28
2022-11-15T08:30:33.847Z,100232.44
2022-11-15T08:33:03.536Z,100229.97
2022-11-15T08:35:31.043Z,100227.56
2022-11-15T08:38:00.850Z,100229.19
2022-11-15T08:40:34.257Z,100224.50
2022-11-15T08:43:05.464Z,100224.75
2022-11-15T08:45:36.546Z,100223.97
2022-11-15T08:48:04.547Z,100221.16
2022-11-15T08:50:32.708Z,100221.19
2022-11-15T08:53:06.448Z,100220.16
2022-11-15T08:55:34.433Z,100226.53
2022-11-15T08:58:02.456Z,100224.28
2022-11-15T09:00:35.278Z,100221.19
2022-11-15T09:03:12.603Z,100232.69
2022-11-15T09:05:44.627Z,100217.16
2022-11-15T09:08:40.878Z,100215.94
2022-11-15T09:11:05.914Z,100218.22
2022-11-15T09:13:35.823Z,100214.53
2022-11-15T09:16:06.822Z,100217.00
2022-11-15T09:18:40.028Z,100214.34
2022-11-15T09:21:34.318Z,100209.81
2022-11-15T09:24:03.717Z,100211.69
2022-11-15T09:26:40.209Z,100211.47
2022-11-15T09:29:11.605Z,100214.56
2022-11-15T09:31:48.978Z,100218.88
2022-11-15T09:34:37.788Z,100203.06
2022-11-15T09:37:16.334Z,100209.22
2022-11-15T09:39:46.200Z,100200.00
2022-11-15T09:42:41.409Z,100207.78
2022-11-15T09:45:36.215Z,100200.38
2022-11-15T09:48:33.022Z,100198.16
2022-11-15T09:51:06.061Z,100201.84
2022-11-15T09:54:23.695Z,100189.75
2022-11-15T09:56:36.736Z,100182.75
2022-11-15T09:59:30.602Z,100195.88
2022-11-15T10:02:06.479Z,100184.38
2022-11-15T10:04:35.184Z,100173.50
2022-11-15T10:07:10.368Z,100165.88
2022-11-15T10:09:49.443Z,100163.38
2022-11-15T10:12:20.317Z,100160.53
2022-11-15T10:14:54.398Z,100161.16
2022-11-15T10:17:52.482Z,100155.19
2022-11-15T10:20:23.366Z,100159.28
2022-11-15T10:22:55.074Z,100153.56
2022-11-15T10:25:25.812Z,100160.13
2022-11-15T10:27:58.942Z,100163.84
2022-11-15T10:30:34.716Z,100166.31
2022-11-15T10:33:17.573Z,100152.34
2022-11-15T10:35:49.838Z,100158.91
2022-11-15T10:38:19.232Z,100151.53
2022-11-15T10:40:47.509Z,100143.50
2022-11-15T10:43:18.489Z,100138.38
2022-11-15T10:45:49.679Z,100127.50
2022-11-15T10:48:27.705Z,100139.81
2022-11-15T10:50:57.306Z,100127.63
2022-11-15T10:53:34.941Z,100126.59
2022-11-15T10:56:06.133Z,100128.06
2022-11-15T10:58:42.277Z,100125.66
2022-11-15T11:01:15.812Z,100106.88
2022-11-15T11:03:49.581Z,100106.06
2022-11-15T11:06:26.599Z,100094.75
2022-11-15T11:09:31.328Z,100092.50
2022-11-15T11:12:00.724Z,100079.59
2022-11-15T11:15:10.406Z,100085.97
2022-11-15T11:28:52.717Z,100065.72
2022-11-15T11:31:54.286Z,100059.00
2022-11-15T11:34:42.342Z,100053.94
2022-11-15T11:37:16.864Z,100062.16
2022-11-15T11:39:55.130Z,100058.81
2022-11-15T11:42:42.204Z,100053.81
2022-11-15T11:45:18.830Z,100045.38
2022-11-15T11:47:49.941Z,100045.03
2022-11-15T11:50:21.836Z,100036.59
2022-11-15T11:53:04.017Z,100035.53
2022-11-15T11:55:37.478Z,100036.50
2022-11-15T11:58:35.610Z,100035.03
2022-11-15T12:01:29.028Z,100029.28
2022-11-15T12:04:34.704Z,100024.75
2022-11-15T12:07:16.852Z,100019.44
2022-11-15T12:10:02.936Z,100015.47
2022-11-15T12:12:39.959Z,100022.47
2022-11-15T12:15:17.564Z,100004.56
2022-11-15T12:17:51.336Z,100005.84
2022-11-15T12:20:21.438Z,100010.78
2022-11-15T12:22:54.666Z,100006.44
2022-11-15T12:25:25.564Z,100000.00
2022-11-15T12:27:59.120Z,99994.16
2022-11-15T12:30:57.485Z,99989.31
2022-11-15T12:33:34.296Z,99983.19
2022-11-15T12:36:05.018Z,99980.19
2022-11-15T12:38:58.696Z,99976.44
2022-11-15T12:41:30.144Z,99985.78
2022-11-15T12:44:00.236Z,99981.63
2022-11-15T12:47:05.626Z,99988.81
2022-11-15T12:49:56.331Z,99978.59
2022-11-15T12:53:10.040Z,99976.03
2022-11-15T12:55:48.307Z,99969.72
2022-11-15T12:58:52.491Z,99959.13
2022-11-15T13:02:14.661Z,99952.63
2022-11-15T13:04:49.049Z,99945.59
2022-11-15T13:08:07.196Z,99940.19
2022-11-15T13:10:36.305Z,99949.97
2022-11-15T13:13:05.985Z,99941.81
2022-11-15T13:15:45.879Z,99946.09
2022-11-15T13:18:39.718Z,99945.97
2022-11-15T13:21:38.923Z,99932.72
2022-11-15T13:24:15.037Z,99931.63
2022-11-15T13:26:48.992Z,99927.44
2022-11-15T13:29:29.274Z,99921.09
2022-11-15T13:32:09.353Z,99918.53
2022-11-15T13:34:52.452Z,99910.06
2022-11-15T13:37:38.443Z,99909.41
2022-11-15T13:40:27.880Z,99904.69
2022-11-15T13:42:58.816Z,99904.00
2022-11-15T13:45:27.833Z,99894.94
2022-11-15T13:48:07.315Z,99898.34
2022-11-15T13:50:42.701Z,99880.44
2022-11-15T13:53:13.754Z,99890.06
2022-11-15T13:55:42.088Z,99884.06
2022-11-15T13:58:24.265Z,99883.84
2022-11-15T14:01:05.534Z,99877.75
2022-11-15T14:07:24.155Z,99872.47
2022-11-15T14:13:38.626Z,99865.19
2022-11-15T14:17:02.054Z,99873.91
2022-11-15T14:19:47.023Z,99860.19
2022-11-15T14:22:30.234Z,99850.31
2022-11-15T14:25:21.045Z,99844.97
2022-11-15T14:28:20.745Z,99853.00
2022-11-15T14:30:51.394Z,99830.47
2022-11-15T14:33:24.848Z,99831.28
2022-11-15T14:35:53.632Z,99831.28
2022-11-15T14:38:21.885Z,99829.44
2022-11-15T14:40:50.072Z,99826.69
2022-11-15T14:43:17.865Z,99825.78
2022-11-15T14:45:45.521Z,99818.81
2022-11-15T14:48:14.515Z,99820.91
2022-11-15T14:50:42.606Z,99809.72
2022-11-15T14:53:14.184Z,99811.44
2022-11-15T14:55:42.575Z,99812.53
2022-11-15T14:58:10.815Z,99803.06
2022-11-15T15:00:40.169Z,99799.63
2022-11-15T15:03:11.412Z,99789.31
2022-11-15T15:05:43.078Z,99781.72
2022-11-15T15:08:11.778Z,99780.31
2022-11-15T15:10:42.098Z,99777.88
2022-11-15T15:13:18.304Z,99777.25
2022-11-15T15:15:46.376Z,99778.81
2022-11-15T15:18:14.276Z,99779.63
2022-11-15T15:20:45.409Z,99774.28
2022-11-15T15:23:18.510Z,99773.69
2022-11-15T15:25:47.233Z,99749.03
2022-11-15T15:28:15.148Z,99754.81
2022-11-15T15:30:43.596Z,99751.53
2022-11-15T15:33:11.410Z,99743.47
2022-11-15T15:35:39.135Z,99743.63
2022-11-15T15:38:08.531Z,99739.16
2022-11-15T15:40:36.605Z,99733.25
2022-11-15T15:43:04.656Z,99734.56
2022-11-15T15:45:33.054Z,99728.88
2022-11-15T15:48:00.891Z,99724.31
2022-11-15T15:50:30.010Z,99717.63
2022-11-15T15:52:59.365Z,99721.25
2022-11-15T15:55:29.122Z,99721.16
2022-11-15T15:57:57.134Z,99730.59
2022-11-15T16:00:26.180Z,99726.34
2022-11-15T16:02:54.525Z,99723.91
2022-11-15T16:05:22.715Z,99721.00
2022-11-15T16:07:50.856Z,99712.78
2022-11-15T16:10:26.989Z,99706.66
2022-11-15T16:12:57.785Z,99700.56
2022-11-15T16:15:27.511Z,99702.63
2022-11-15T16:17:56.735Z,99715.00
2022-11-15T16:20:36.402Z,99710.59
2022-11-15T16:23:08.958Z,99710.22
2022-11-15T16:25:40.752Z,99709.16
2022-11-15T16:28:17.206Z,99709.16
2022-11-15T16:30:44.906Z,99707.31
2022-11-15T16:33:12.496Z,99704.44
2022-11-15T16:35:40.100Z,99693.56
2022-11-15T16:38:09.314Z,99698.28
2022-11-15T16:40:37.937Z,99693.38
2022-11-15T16:43:06.618Z,99694.03
2022-11-15T16:45:36.521Z,99691.78
2022-11-15T16:48:05.160Z,99686.66
2022-11-15T16:50:35.164Z,99684.22
2022-11-15T16:53:02.948Z,99688.97
2022-11-15T16:55:30.901Z,99691.19
2022-11-15T16:57:59.335Z,99673.16
2022-11-15T17:00:28.429Z,99676.50
2022-11-15T17:02:57.842Z,99669.97
2022-11-15T17:05:27.637Z,99670.38
2022-11-15T17:07:55.218Z,99661.34
2022-11-15T17:10:23.391Z,99658.22
2022-11-15T17:12:51.353Z,99655.38
2022-11-15T17:15:19.291Z,99653.00
2022-11-15T17:17:52.256Z,99655.44
2022-11-15T17:20:22.649Z,99659.66
2022-11-15T17:22:50.136Z,99656.22
2022-11-15T17:25:17.667Z,99655.16
2022-11-15T17:27:45.250Z,99650.63
2022-11-15T17:30:15.176Z,99651.81
2022-11-15T17:32:42.801Z,99646.69
2022-11-15T17:35:15.350Z,99642.22
2022-11-15T17:37:45.286Z,99641.63
2022-11-15T17:40:13.270Z,99630.97
2022-11-15T17:42:42.556Z,99637.28
2022-11-15T17:45:10.916Z,99622.91
2022-11-15T17:47:38.846Z,99627.66
2022-11-15T17:50:07.798Z,99632.63
2022-11-15T17:52:35.362Z,99631.41
2022-11-15T17:55:04.907Z,99639.06
2022-11-15T17:57:32.435Z,99627.75
2022-11-15T17:59:59.935Z,99628.59
2022-11-15T18:02:28.050Z,99620.75
2022-11-15T18:04:55.571Z,99614.78
2022-11-15T18:07:23.325Z,99612.69
2022-11-15T18:09:50.879Z,99610.38
2022-11-15T18:12:19.729Z,99602.16
2022-11-15T18:14:47.224Z,99600.72
2022-11-15T18:17:14.718Z,99597.47
2022-11-15T18:19:42.275Z,99594.19
2022-11-15T18:22:10.191Z,99600.16
2022-11-15T18:24:38.370Z,99603.47
2022-11-15T18:27:07.197Z,99604.31
2022-11-15T18:29:37.785Z,99600.81
2022-11-15T18:32:11.248Z,99597.75
2022-11-15T18:34:38.978Z,99601.25
2022-11-15T18:37:06.496Z,99596.53
2022-11-15T18:39:34.112Z,99595.66
2022-11-15T18:42:02.164Z,99586.63
2022-11-15T18:44:30.599Z,99592.72
2022-11-15T18:46:59.974Z,99585.50
2022-11-15T18:49:27.906Z,99580.44
2022-11-15T18:51:58.308Z,99575.03
2022-11-15T18:54:31.003Z,99579.78
2022-11-15T18:57:01.682Z,99579.19
2022-11-15T18:59:30.190Z,99575.34
2022-11-15T19:01:57.876Z,99569.25
2022-11-15T19:04:28.732Z,99568.03
2022-11-15T19:06:56.582Z,99562.31
2022-11-15T19:09:27.329Z,99562.72
2022-11-15T19:11:54.952Z,99553.28
2022-11-15T19:14:24.427Z,99549.22
2022-11-15T19:16:57.262Z,99552.47
2022-11-15T19:19:28.431Z,99552.47
2022-11-15T19:21:57.509Z,99548.84
2022-11-15T19:24:26.321Z,99555.91
2022-11-15T19:26:54.904Z,99550.56
2022-11-15T19:29:22.588Z,99557.91
2022-11-15T19:31:51.430Z,99555.16
2022-11-15T19:34:23.213Z,99556.47
2022-11-15T19:36:52.365Z,99555.28
2022-11-15T19:39:22.541Z,99550.72
2022-11-15T19:41:53.828Z,99551.22
2022-11-15T19:44:23.646Z,99541.38
2022-11-15T19:46:51.507Z,99547.34
2022-11-15T19:49:19.694Z,99546.31
2022-11-15T19:51:49.737Z,99543.22
2022-11-15T19:54:24.269Z,99539.94
2022-11-15T19:57:07.759Z,99539.69
2022-11-15T19:59:40.576Z,99532.78
2022-11-15T20:02:19.758Z,99531.59
2022-11-15T20:04:48.751Z,99524.63
2022-11-15T20:07:16.615Z,99524.97
2022-11-15T20:09:47.084Z,99531.38
2022-11-15T20:12:14.933Z,99521.81
2022-11-15T20:14:45.901Z,99524.03
2022-11-15T20:17:13.888Z,99525.25
2022-11-15T20:19:41.560Z,99518.78
2022-11-15T20:22:14.427Z,99531.50
2022-11-15T20:24:42.112Z,99517.97
2022-11-15T20:27:11.354Z,99513.94
2022-11-15T20:29:43.881Z,99516.81
2022-11-15T20:32:12.888Z,99518.59
2022-11-15T20:34:40.706Z,99511.66
2022-11-15T20:37:08.459Z,99509.31
2022-11-15T20:39:36.037Z,99501.72
2022-11-15T20:42:05.358Z,99503.31
2022-11-15T20:44:36.071Z,99501.34
2022-11-15T20:47:04.416Z,99496.84
2022-11-15T20:49:32.170Z,99502.59
2022-11-15T20:51:59.897Z,99493.16
2022-11-15T20:54:27.738Z,99498.03
2022-11-15T20:56:56.418Z,99489.03
2022-11-15T20:59:25.436Z,99483.97
2022-11-15T21:01:54.657Z,99485.00
2022-11-15T21:04:22.717Z,99485.88
2022-11-15T21:06:50.753Z,99488.69
2022-11-15T21:09:37.580Z,99476.56
2022-11-15T21:12:19.661Z,99468.94
2022-11-15T21:14:49.008Z,99468.47
2022-11-15T21:17:22.183Z,99472.19
2022-11-15T21:19:50.890Z,99474.22
2022-11-15T21:22:29.859Z,99468.47
2022-11-15T21:25:00.876Z,99465.97
2022-11-15T21:27:32.375Z,99458.53
2022-11-15T21:30:37.128Z,99447.56
2022-11-15T21:33:08.060Z,99458.31
2022-11-15T21:35:58.090Z,99453.22
2022-11-15T21:38:25.944Z,99451.94
2022-11-15T21:40:56.703Z,99438.63
2022-11-15T21:43:28.328Z,99448.22
2022-11-15T21:46:00.162Z,99441.00
2022-11-15T21:48:40.371Z,99447.34
2022-11-15T21:51:13.716Z,99439.13
2022-11-15T21:53:54.759Z,99438.88
2022-11-15T21:56:37.147Z,99435.38
2022-11-15T21:59:04.868Z,99434.78
2022-11-15T22:01:51.655Z,99432.88
2022-11-15T22:04:34.459Z,99432.44
2022-11-15T22:07:03.390Z,99432.44
2022-11-15T22:09:34.135Z,99423.09
2022-11-15T22:15:02.289Z,99421.41
2022-11-15T22:18:11.800Z,99418.09
2022-11-15T22:20:51.342Z,99425.38
2022-11-15T22:23:19.052Z,99427.88
2022-11-15T22:25:46.709Z,99423.06
2022-11-15T22:31:07.166Z,99413.88
2022-11-15T22:33:38.884Z,99413.44
2022-11-15T22:39:35.819Z,99402.63
2022-11-15T22:42:06.855Z,99401.72
2022-11-15T22:44:36.923Z,99398.78
2022-11-15T22:47:19.580Z,99388.94
2022-11-15T22:50:04.333Z,99394.78
2022-11-15T22:52:33.660Z,99393.19
2022-11-15T22:56:08.389Z,99388.44
2022-11-15T22:57:57.471Z,99391.50
2022-11-15T23:01:10.158Z,99395.00
2022-11-15T23:05:20.362Z,99385.09
2022-11-15T23:12:06.741Z,99374.00
2022-11-15T23:15:42.081Z,99383.28
2022-11-15T23:18:07.565Z,99388.41
2022-11-15T23:20:43.428Z,99386.19
2022-11-15T23:27:20.813Z,99359.94
2022-11-15T23:30:06.047Z,99369.53
2022-11-15T23:32:51.428Z,99366.44
2022-11-15T23:35:21.239Z,99371.16
2022-11-15T23:37:49.145Z,99368.56
2022-11-15T23:40:17.104Z,99362.91
2022-11-15T23:42:46.069Z,99367.97
2022-11-15T23:45:13.795Z,99368.72
2022-11-15T23:47:41.418Z,99367.50
2022-11-15T23:50:09.591Z,99359.88
2022-11-15T23:52:37.159Z,99357.59
2022-11-15T23:55:05.876Z,99357.50
2022-11-15T23:57:33.540Z,99358.56
